Peotone Weather
Peotone-Weather Station Historical Data
 
Daily Summary for November 28, 2021 Units:  English    Metric   Both
Daily Weekly Monthly Yearly Custom
  Current: High: Low: Average:
Temperature: 28.9 °F 30.5 °F 25.5 °F 27.2 °F
Dew Point: 25.8 °F 26 °F 21.9 °F 23.4 °F
Humidity: 88% 89% 82% 85%
Wind Speed: 5.9mph 7.8mph 1.6mph 3.9mph
Wind Gust: 13.8mph 13.8mph - -
WindWNW - - WNW
Pressure: 30.06 in 30.06 in 29.98 in -
Precipitation: 0.00 in      
Historical Graphs
 
 
Tabular Data for November 28, 2021
Time Temperature Dew Point Pressure Wind Wind Speed Wind Gust Humidity Rainfall Rate (Hourly) solar
00:04 30.5 °F 26 °F 29.98 in NNW 7.8 mph 13.8 mph 83% 0.00 in 0 W/m2
00:09 30.4 °F 25.9 °F 29.98 in NW 7 mph 13.8 mph 82.9% 0.00 in 0 W/m2
00:14 30.3 °F 25.5 °F 29.98 in NW 5.8 mph 13.8 mph 82% 0.00 in 0 W/m2
00:19 30.3 °F 25.4 °F 29.99 in NW 5.8 mph 11.5 mph 82% 0.00 in 0 W/m2
00:24 30.2 °F 25.4 °F 29.99 in NNW 5.8 mph 11.5 mph 82% 0.00 in 0 W/m2
00:29 30.1 °F 25.3 °F 29.99 in NW 5.5 mph 10.3 mph 82% 0.00 in 0 W/m2
00:34 30 °F 25.2 °F 29.99 in NW 3.2 mph 10.3 mph 82% 0.00 in 0 W/m2
00:39 29.9 °F 25.1 °F 29.99 in NW 2.2 mph 8.1 mph 82% 0.00 in 0 W/m2
00:44 29.8 °F 25 °F 29.99 in NW 3.4 mph 10.3 mph 82% 0.00 in 0 W/m2
00:49 29.7 °F 24.9 °F 29.99 in NW 5 mph 12.6 mph 82% 0.00 in 0 W/m2
00:54 29.6 °F 24.8 °F 29.99 in NW 4.6 mph 12.6 mph 82% 0.00 in 0 W/m2
00:59 29.5 °F 24.7 °F 29.99 in NW 4.2 mph 10.3 mph 82% 0.00 in 0 W/m2
01:04 29.4 °F 24.6 °F 29.99 in NW 3.2 mph 10.3 mph 82% 0.00 in 0 W/m2
01:09 29.2 °F 24.4 °F 29.99 in NW 3.6 mph 10.3 mph 82% 0.00 in 0 W/m2
01:14 29.1 °F 24.3 °F 29.99 in WNW 3.9 mph 9.2 mph 82% 0.00 in 0 W/m2
01:19 29.1 °F 24.3 °F 30.00 in NW 3.1 mph 9.2 mph 82% 0.00 in 0 W/m2
01:24 29 °F 24.2 °F 30.00 in WNW 2.5 mph 8.1 mph 82% 0.00 in 0 W/m2
01:29 28.9 °F 24.1 °F 30.00 in WNW 1.6 mph 8.1 mph 82% 0.00 in 0 W/m2
01:34 28.8 °F 24 °F 30.00 in WNW 3.5 mph 9.2 mph 82% 0.00 in 0 W/m2
01:39 28.7 °F 23.9 °F 30.01 in WNW 3 mph 9.2 mph 82% 0.00 in 0 W/m2
01:44 28.5 °F 23.7 °F 30.01 in NW 3.8 mph 9.2 mph 82% 0.00 in 0 W/m2
01:49 28.3 °F 23.6 °F 30.01 in WNW 4.1 mph 10.3 mph 82.4% 0.00 in 0 W/m2
01:54 28.2 °F 23.7 °F 30.02 in WNW 3.8 mph 10.3 mph 83% 0.00 in 0 W/m2
01:59 28 °F 23.5 °F 30.02 in WNW 4.7 mph 10.3 mph 83% 0.00 in 0 W/m2
02:04 27.9 °F 23.5 °F 30.01 in WNW 4.4 mph 10.3 mph 83.3% 0.00 in 0 W/m2
02:09 27.8 °F 23.5 °F 30.02 in WNW 2.7 mph 9.2 mph 83.7% 0.00 in 0 W/m2
02:14 27.7 °F 23.5 °F 30.02 in WNW 4.4 mph 11.5 mph 84% 0.00 in 0 W/m2
02:19 27.6 °F 23.4 °F 30.02 in WNW 4.5 mph 11.5 mph 84% 0.00 in 0 W/m2
02:24 27.6 °F 23.4 °F 30.02 in WNW 3.8 mph 10.3 mph 84% 0.00 in 0 W/m2
02:29 27.5 °F 23.3 °F 30.02 in WNW 4.2 mph 10.3 mph 84% 0.00 in 0 W/m2
02:34 27.4 °F 23.2 °F 30.02 in WNW 4.2 mph 11.5 mph 84% 0.00 in 0 W/m2
02:39 27.3 °F 23.4 °F 30.02 in WNW 3.9 mph 11.5 mph 85% 0.00 in 0 W/m2
02:44 27.2 °F 23.3 °F 30.02 in WNW 4.1 mph 9.2 mph 85% 0.00 in 0 W/m2
02:49 27.1 °F 23.2 °F 30.02 in WNW 3.3 mph 9.2 mph 85% 0.00 in 0 W/m2
02:54 27 °F 23.1 °F 30.02 in WNW 3.2 mph 9.2 mph 85% 0.00 in 0 W/m2
02:59 26.9 °F 23 °F 30.02 in WNW 3.4 mph 9.2 mph 85% 0.00 in 0 W/m2
03:04 26.8 °F 22.9 °F 30.02 in NW 3.3 mph 8.1 mph 85% 0.00 in 0 W/m2
03:09 26.8 °F 22.9 °F 30.02 in WNW 3.7 mph 9.2 mph 85% 0.00 in 0 W/m2
03:14 26.7 °F 22.8 °F 30.02 in WNW 2.2 mph 9.2 mph 85% 0.00 in 0 W/m2
03:19 26.6 °F 22.7 °F 30.02 in West 2.8 mph 8.1 mph 85% 0.00 in 0 W/m2
03:24 26.5 °F 22.6 °F 30.02 in West 3.2 mph 6.9 mph 85% 0.00 in 0 W/m2
03:29 26.5 °F 22.6 °F 30.03 in West 2.3 mph 6.9 mph 85% 0.00 in 0 W/m2
03:34 26.5 °F 22.7 °F 30.03 in West 1.6 mph 5.8 mph 85.2% 0.00 in 0 W/m2
03:39 26.5 °F 22.8 °F 30.03 in WNW 2.3 mph 6.9 mph 86% 0.00 in 0 W/m2
03:44 26.4 °F 22.7 °F 30.03 in WNW 1.9 mph 5.8 mph 85.7% 0.00 in 0 W/m2
03:49 26.3 °F 22.4 °F 30.03 in WNW 2.6 mph 5.8 mph 85% 0.00 in 0 W/m2
03:54 26.3 °F 22.4 °F 30.03 in West 3.3 mph 6.9 mph 85% 0.00 in 0 W/m2
03:59 26.2 °F 22.3 °F 30.02 in West 3.7 mph 6.9 mph 85% 0.00 in 0 W/m2
04:04 26.1 °F 22.3 °F 30.03 in West 3.1 mph 6.9 mph 85% 0.00 in 0 W/m2
04:09 26.1 °F 22.2 °F 30.03 in West 3.7 mph 6.9 mph 85% 0.00 in 0 W/m2
04:14 26.1 °F 22.5 °F 30.03 in WSW 5.1 mph 9.2 mph 86% 0.00 in 0 W/m2
04:19 26.1 °F 22.5 °F 30.03 in WSW 4.6 mph 9.2 mph 86% 0.00 in 0 W/m2
04:24 26.1 °F 22.5 °F 30.03 in West 5.1 mph 9.2 mph 86% 0.00 in 0 W/m2
04:29 26.1 °F 22.5 °F 30.03 in WSW 5.2 mph 9.2 mph 86% 0.00 in 0 W/m2
04:34 26.1 °F 22.5 °F 30.03 in WSW 6.2 mph 10.3 mph 86% 0.00 in 0 W/m2
04:39 26.2 °F 22.5 °F 30.03 in West 5.5 mph 10.3 mph 86% 0.00 in 0 W/m2
04:44 26.2 °F 22.6 °F 30.03 in WSW 5.7 mph 11.5 mph 86% 0.00 in 0 W/m2
04:49 26.2 °F 22.6 °F 30.03 in WSW 4.7 mph 11.5 mph 86% 0.00 in 0 W/m2
04:54 26.3 °F 22.7 °F 30.03 in WSW 2.9 mph 10.3 mph 86% 0.00 in 0 W/m2
04:59 26.3 °F 22.7 °F 30.03 in West 2.6 mph 9.2 mph 86% 0.00 in 0 W/m2
05:04 26.3 °F 22.7 °F 30.03 in WNW 2.4 mph 10.3 mph 86% 0.00 in 0 W/m2
05:09 26.3 °F 22.7 °F 30.03 in West 4.3 mph 10.3 mph 86% 0.00 in 0 W/m2
05:14 26.2 °F 22.6 °F 30.03 in WNW 3.5 mph 9.2 mph 86% 0.00 in 0 W/m2
05:19 26.2 °F 22.5 °F 30.03 in NW 3.4 mph 8.1 mph 86% 0.00 in 0 W/m2
05:24 26 °F 22.4 °F 30.03 in WNW 3.1 mph 9.2 mph 86% 0.00 in 0 W/m2
05:29 25.9 °F 22.3 °F 30.03 in WNW 3.9 mph 9.2 mph 86% 0.00 in 0 W/m2
05:34 25.8 °F 22.2 °F 30.03 in WNW 3.1 mph 9.2 mph 86% 0.00 in 0 W/m2
05:39 25.7 °F 22.1 °F 30.03 in WNW 4.1 mph 10.3 mph 86% 0.00 in 0 W/m2
05:44 25.7 °F 22.1 °F 30.04 in WNW 3.3 mph 10.3 mph 86% 0.00 in 0 W/m2
05:49 25.6 °F 22 °F 30.04 in WNW 3.5 mph 9.2 mph 86% 0.00 in 0 W/m2
05:54 25.5 °F 21.9 °F 30.04 in WNW 3.9 mph 9.2 mph 86% 0.00 in 0 W/m2
05:59 25.5 °F 22.1 °F 30.04 in WNW 5 mph 11.5 mph 86.7% 0.00 in 0 W/m2
06:04 25.5 °F 22.2 °F 30.05 in WNW 4 mph 11.5 mph 87% 0.00 in 0 W/m2
06:09 25.5 °F 22.2 °F 30.05 in WNW 4.4 mph 9.2 mph 87% 0.00 in 0 W/m2
06:14 25.5 °F 22.2 °F 30.04 in NW 4.5 mph 10.3 mph 87% 0.00 in 0 W/m2
06:19 25.6 °F 22.3 °F 30.04 in WNW 3.6 mph 11.5 mph 87% 0.00 in 0 W/m2
06:24 25.7 °F 22.4 °F 30.04 in WNW 4.5 mph 10.3 mph 87% 0.00 in 0 W/m2
06:29 25.8 °F 22.5 °F 30.04 in WNW 3.2 mph 10.3 mph 87% 0.00 in 0 W/m2
06:34 25.9 °F 22.7 °F 30.04 in WNW 4.5 mph 10.3 mph 87.1% 0.00 in 0 W/m2
06:39 26.1 °F 22.9 °F 30.05 in WNW 3.9 mph 10.3 mph 87.5% 0.00 in 0 W/m2
06:44 26.2 °F 22.9 °F 30.05 in WNW 2.8 mph 10.3 mph 87.3% 0.00 in 0 W/m2
06:49 26.3 °F 22.9 °F 30.05 in WNW 3.8 mph 9.2 mph 87% 0.00 in 0 W/m2
06:54 26.3 °F 23 °F 30.05 in WNW 3.1 mph 9.2 mph 87% 0.00 in 0 W/m2
06:59 26.3 °F 23 °F 30.05 in WNW 4.2 mph 10.3 mph 87% 0.00 in 5 W/m2
07:04 26.3 °F 23 °F 30.05 in WNW 3.8 mph 10.3 mph 87% 0.00 in 7 W/m2
07:09 26.3 °F 23 °F 30.05 in WNW 2.7 mph 9.2 mph 87% 0.00 in 11 W/m2
07:14 26.3 °F 23 °F 30.05 in NW 3 mph 9.2 mph 87% 0.00 in 12 W/m2
07:19 26.3 °F 23 °F 30.05 in WNW 3 mph 9.2 mph 87% 0.00 in 14 W/m2
07:24 26.3 °F 23 °F 30.05 in WNW 3.7 mph 9.2 mph 87% 0.00 in 16 W/m2
07:29 26.4 °F 23 °F 30.05 in WNW 3 mph 9.2 mph 87% 0.00 in 18 W/m2
07:34 26.4 °F 23.1 °F 30.05 in WNW 3.4 mph 9.2 mph 87% 0.00 in 19 W/m2
07:39 26.5 °F 23.3 °F 30.06 in WNW 3.9 mph 10.3 mph 87.6% 0.00 in 21 W/m2
07:44 26.5 °F 23.4 °F 30.06 in WNW 4.5 mph 11.5 mph 88% 0.00 in 25 W/m2
07:49 26.6 °F 23.6 °F 30.06 in WNW 3.3 mph 11.5 mph 88% 0.00 in 25 W/m2
07:54 26.7 °F 23.6 °F 30.06 in WNW 2.6 mph 9.2 mph 88% 0.00 in 26 W/m2
07:59 26.8 °F 23.7 °F 30.06 in West 3.6 mph 9.2 mph 88% 0.00 in 26 W/m2
08:04 26.9 °F 23.9 °F 30.06 in West 3.9 mph 10.3 mph 88% 0.00 in 28 W/m2
08:09 27.2 °F 24.1 °F 30.06 in West 4.8 mph 10.3 mph 88% 0.00 in 28 W/m2
08:14 27.3 °F 24.3 °F 30.06 in WNW 4.6 mph 12.6 mph 88% 0.00 in 30 W/m2
08:19 27.5 °F 24.5 °F 30.06 in WNW 4.9 mph 13.8 mph 88% 0.00 in 30 W/m2
08:24 27.8 °F 24.9 °F 30.06 in WNW 6.1 mph 13.8 mph 88.9% 0.00 in 32 W/m2
08:29 28 °F 25.2 °F 30.06 in West 6 mph 12.6 mph 89% 0.00 in 32 W/m2
08:34 28.3 °F 25.4 °F 30.06 in WNW 5.8 mph 13.8 mph 88.6% 0.00 in 32 W/m2
08:39 28.6 °F 25.7 °F 30.06 in NW 6.3 mph 13.8 mph 88.8% 0.00 in 33 W/m2
08:44 28.9 °F 25.8 °F 30.06 in WNW 5.9 mph 13.8 mph 88% 0.00 in 33 W/m2
Peotne Weather
Compliments of Weather Underground - 4 mb